createdAt,value
2022-11-14T00:00:57.741Z,76.50
2022-11-14T00:03:30.847Z,77.80
2022-11-14T00:06:07.357Z,73.80
2022-11-14T00:08:43.804Z,74.50
2022-11-14T00:11:16.935Z,73.70
2022-11-14T00:13:45.572Z,73.80
2022-11-14T00:16:13.929Z,77.00
2022-11-14T00:18:48.780Z,69.40
2022-11-14T00:21:23.550Z,71.20
2022-11-14T00:23:58.468Z,76.20
2022-11-14T00:26:33.465Z,72.70
2022-11-14T00:29:08.360Z,67.40
2022-11-14T00:31:43.264Z,73.50
2022-11-14T00:34:16.352Z,66.70
2022-11-14T00:36:51.084Z,72.20
2022-11-14T00:39:26.104Z,74.10
2022-11-14T00:42:00.942Z,70.50
2022-11-14T00:44:35.500Z,75.90
2022-11-14T00:47:08.573Z,72.40
2022-11-14T00:49:41.658Z,73.20
2022-11-14T00:52:16.604Z,73.30
2022-11-14T00:54:51.469Z,76.20
2022-11-14T00:57:24.367Z,73.10
2022-11-14T00:59:57.417Z,73.90
2022-11-14T01:02:30.531Z,71.80
2022-11-14T01:05:03.657Z,71.20
2022-11-14T01:07:38.547Z,74.90
2022-11-14T01:10:13.524Z,73.80
2022-11-14T01:12:42.052Z,71.00
2022-11-14T01:15:17.148Z,74.40
2022-11-14T01:17:50.320Z,72.40
2022-11-14T01:20:19.286Z,72.10
2022-11-14T01:22:53.781Z,81.20
2022-11-14T01:25:28.550Z,72.80
2022-11-14T01:28:01.639Z,72.10
2022-11-14T01:30:34.699Z,75.00
2022-11-14T01:33:11.619Z,75.70
2022-11-14T01:35:44.472Z,72.20
2022-11-14T01:38:18.935Z,80.20
2022-11-14T01:40:47.696Z,72.00
2022-11-14T01:43:20.673Z,75.90
2022-11-14T01:45:59.580Z,72.80
2022-11-14T01:48:44.487Z,77.70
2022-11-14T01:51:31.576Z,76.40
2022-11-14T01:54:29.897Z,75.90
2022-11-14T01:57:05.446Z,68.70
2022-11-14T01:59:54.390Z,78.90
2022-11-14T02:02:29.267Z,76.50
2022-11-14T02:05:16.737Z,71.00
2022-11-14T02:07:49.750Z,73.20
2022-11-14T02:10:22.973Z,76.10
2022-11-14T02:12:56.064Z,73.70
2022-11-14T02:15:44.203Z,63.90
2022-11-14T02:18:23.081Z,65.20
2022-11-14T02:20:56.273Z,74.60
2022-11-14T02:23:32.562Z,67.00
2022-11-14T02:26:06.307Z,65.60
2022-11-14T02:28:39.481Z,70.80
2022-11-14T02:31:12.616Z,67.10
2022-11-14T02:33:48.017Z,73.80
2022-11-14T02:36:22.656Z,64.60
2022-11-14T02:38:57.143Z,74.90
2022-11-14T02:41:30.325Z,72.00
2022-11-14T02:44:03.392Z,65.70
2022-11-14T02:46:38.155Z,51.10
2022-11-14T02:49:11.260Z,72.40
2022-11-14T02:51:46.109Z,65.80
2022-11-14T02:54:19.000Z,69.90
2022-11-14T02:56:53.747Z,68.50
2022-11-14T02:59:28.717Z,79.00
2022-11-14T03:02:03.408Z,77.30
2022-11-14T03:04:38.229Z,71.30
2022-11-14T03:07:12.937Z,73.50
2022-11-14T03:09:45.902Z,67.40
2022-11-14T03:12:34.043Z,76.70
2022-11-14T03:15:11.501Z,80.20
2022-11-14T03:17:46.435Z,72.90
2022-11-14T03:20:22.066Z,71.60
2022-11-14T03:22:56.901Z,80.40
2022-11-14T03:25:29.876Z,76.50
2022-11-14T03:28:04.779Z,71.50
2022-11-14T03:30:43.607Z,74.00
2022-11-14T03:33:18.560Z,76.30
2022-11-14T03:35:53.756Z,77.30
2022-11-14T03:38:27.078Z,82.30
2022-11-14T03:41:15.409Z,80.30
2022-11-14T03:43:48.477Z,76.50
2022-11-14T03:46:21.420Z,74.50
2022-11-14T03:49:00.115Z,82.30
2022-11-14T03:51:34.762Z,77.60
2022-11-14T03:54:10.799Z,80.00
2022-11-14T03:56:45.435Z,72.30
2022-11-14T03:59:18.423Z,80.60
2022-11-14T04:01:52.962Z,63.10
2022-11-14T04:04:22.520Z,79.50
2022-11-14T04:06:56.037Z,63.40
2022-11-14T04:09:34.917Z,77.60
2022-11-14T04:12:11.367Z,78.00
2022-11-14T04:14:48.451Z,72.80
2022-11-14T04:17:23.497Z,79.40
2022-11-14T04:19:58.007Z,80.90
2022-11-14T04:22:32.840Z,71.50
2022-11-14T04:25:11.451Z,74.10
2022-11-14T04:27:46.100Z,76.50
2022-11-14T04:30:24.962Z,72.60
2022-11-14T04:32:57.973Z,75.20
2022-11-14T04:35:30.933Z,73.50
2022-11-14T04:38:04.317Z,82.90
2022-11-14T04:40:39.156Z,74.50
2022-11-14T04:43:14.196Z,81.70
2022-11-14T04:45:47.396Z,77.20
2022-11-14T04:48:22.131Z,63.90
2022-11-14T04:50:55.153Z,76.00
2022-11-14T04:53:29.927Z,61.00
2022-11-14T04:56:02.991Z,65.50
2022-11-14T04:58:37.615Z,69.50
2022-11-14T05:01:13.950Z,74.00
2022-11-14T05:03:48.670Z,72.10
2022-11-14T05:06:23.592Z,74.70
2022-11-14T05:08:57.973Z,70.50
2022-11-14T05:11:32.710Z,68.40
2022-11-14T05:14:07.647Z,72.90
2022-11-14T05:16:42.150Z,65.80
2022-11-14T05:19:21.011Z,72.00
2022-11-14T05:21:53.911Z,78.60
2022-11-14T05:24:29.055Z,77.60
2022-11-14T05:27:02.204Z,71.20
2022-11-14T05:29:35.106Z,74.80
2022-11-14T05:32:16.321Z,71.40
2022-11-14T05:34:50.947Z,75.10
2022-11-14T05:37:27.627Z,74.00
2022-11-14T05:40:01.931Z,78.90
2022-11-14T05:42:34.960Z,76.30
2022-11-14T05:45:10.343Z,69.90
2022-11-14T05:47:45.193Z,77.30
2022-11-14T05:50:18.281Z,76.30
2022-11-14T05:52:51.416Z,72.10
2022-11-14T05:55:25.232Z,68.80
2022-11-14T06:00:39.484Z,69.60
2022-11-14T06:03:17.145Z,66.90
2022-11-14T06:05:51.690Z,78.10
2022-11-14T06:08:24.744Z,73.00
2022-11-14T06:11:02.364Z,61.80
2022-11-14T06:13:37.466Z,71.10
2022-11-14T06:16:20.321Z,70.60
2022-11-14T06:18:55.437Z,70.80
2022-11-14T06:21:31.788Z,72.60
2022-11-14T06:24:06.926Z,76.90
2022-11-14T06:26:39.980Z,69.70
2022-11-14T06:31:43.482Z,72.90
2022-11-14T06:34:18.083Z,65.70
2022-11-14T06:36:52.744Z,79.10
2022-11-14T06:39:44.645Z,69.50
2022-11-14T06:42:19.328Z,73.30
2022-11-14T06:45:07.740Z,69.10
2022-11-14T06:47:42.325Z,70.70
2022-11-14T06:50:15.466Z,66.60
2022-11-14T06:53:07.611Z,64.50
2022-11-14T06:55:40.659Z,69.00
2022-11-14T06:58:13.730Z,70.40
2022-11-14T07:00:48.404Z,71.60
2022-11-14T07:03:23.234Z,71.20
2022-11-14T07:06:24.561Z,74.30
2022-11-14T07:09:00.283Z,68.00
2022-11-14T07:11:36.427Z,76.80
2022-11-14T07:14:15.322Z,71.70
2022-11-14T07:16:50.173Z,64.20
2022-11-14T07:19:24.935Z,66.40
2022-11-14T07:21:59.626Z,68.20
2022-11-14T07:24:36.350Z,66.60
2022-11-14T07:27:12.161Z,69.70
2022-11-14T07:29:45.280Z,69.00
2022-11-14T07:32:18.035Z,67.90
2022-11-14T07:34:46.479Z,74.00
2022-11-14T07:37:14.943Z,71.70
2022-11-14T07:39:44.405Z,70.80
2022-11-14T07:42:18.409Z,67.30
2022-11-14T07:44:46.850Z,59.30
2022-11-14T07:47:15.247Z,63.30
2022-11-14T07:49:44.220Z,60.90
2022-11-14T07:52:17.122Z,63.60
2022-11-14T07:54:45.664Z,55.90
2022-11-14T07:57:14.077Z,67.10
2022-11-14T07:59:47.211Z,65.10
2022-11-14T08:02:19.735Z,67.30
2022-11-14T08:04:48.340Z,59.90
2022-11-14T08:07:17.893Z,60.50
2022-11-14T08:09:46.401Z,59.40
2022-11-14T08:12:19.411Z,51.00
2022-11-14T08:14:48.532Z,57.00
2022-11-14T08:17:24.752Z,54.20
2022-11-14T08:19:57.589Z,55.00
2022-11-14T08:22:31.518Z,54.40
2022-11-14T08:27:34.968Z,55.60
2022-11-14T08:30:08.771Z,56.30
2022-11-14T08:35:27.754Z,57.30
2022-11-14T08:38:03.286Z,52.50
2022-11-14T08:40:32.327Z,47.40
2022-11-14T08:43:07.145Z,50.70
2022-11-14T08:45:42.154Z,49.40
2022-11-14T08:48:15.338Z,54.30
2022-11-14T08:50:50.467Z,49.70
2022-11-14T08:53:23.651Z,49.60
2022-11-14T08:55:58.422Z,38.80
2022-11-14T08:58:34.773Z,47.30
2022-11-14T09:01:11.817Z,46.30
2022-11-14T09:03:45.244Z,46.60
2022-11-14T09:06:18.418Z,42.70
2022-11-14T09:08:53.379Z,44.40
2022-11-14T09:11:26.368Z,43.60
2022-11-14T09:13:59.511Z,44.60
2022-11-14T09:16:33.974Z,42.10
2022-11-14T09:19:07.085Z,44.60
2022-11-14T09:21:41.835Z,46.90
2022-11-14T09:24:14.964Z,43.60
2022-11-14T09:26:56.571Z,45.80
2022-11-14T09:29:30.447Z,45.80
2022-11-14T09:31:59.602Z,49.00
2022-11-14T09:34:28.256Z,44.70
2022-11-14T09:37:01.357Z,46.20
2022-11-14T09:39:38.305Z,50.50
2022-11-14T09:42:47.819Z,45.50
2022-11-14T09:45:22.653Z,44.30
2022-11-14T09:48:14.810Z,42.70
2022-11-14T09:51:21.043Z,45.80
2022-11-14T09:54:20.363Z,47.70
2022-11-14T09:56:53.604Z,43.90
2022-11-14T09:59:22.120Z,48.80
2022-11-14T10:02:03.400Z,46.00
2022-11-14T10:05:08.305Z,47.10
2022-11-14T10:11:09.475Z,41.80
2022-11-14T10:13:51.427Z,41.20
2022-11-14T10:16:43.962Z,43.70
2022-11-14T10:19:20.162Z,45.20
2022-11-14T10:22:09.023Z,44.30
2022-11-14T10:25:04.910Z,42.70
2022-11-14T10:27:55.433Z,47.10
2022-11-14T10:30:42.581Z,37.80
2022-11-14T10:33:30.524Z,42.80
2022-11-14T10:36:42.797Z,46.20
2022-11-14T10:39:39.810Z,42.90
2022-11-14T10:42:37.290Z,42.90
2022-11-14T10:45:27.744Z,41.80
2022-11-14T10:48:11.013Z,40.50
2022-11-14T10:50:50.364Z,41.20
2022-11-14T10:53:57.031Z,40.20
2022-11-14T10:56:30.918Z,39.50
2022-11-14T10:58:59.730Z,40.00
2022-11-14T11:01:35.856Z,38.60
2022-11-14T11:04:25.211Z,41.90
2022-11-14T11:06:56.735Z,40.30
2022-11-14T11:09:46.577Z,41.30
2022-11-14T11:12:20.668Z,39.80
2022-11-14T11:15:08.313Z,38.50
2022-11-14T11:17:42.790Z,46.10
2022-11-14T11:20:23.147Z,39.50
2022-11-14T11:23:22.054Z,44.10
2022-11-14T11:26:16.178Z,45.30
2022-11-14T11:28:44.481Z,39.70
2022-11-14T11:31:12.867Z,45.10
2022-11-14T11:33:43.240Z,42.70
2022-11-14T11:36:19.230Z,35.70
2022-11-14T11:38:48.288Z,41.50
2022-11-14T11:44:33.529Z,40.00
2022-11-14T11:47:08.666Z,40.70
2022-11-14T11:49:45.408Z,42.50
2022-11-14T11:52:37.866Z,41.00
2022-11-14T11:55:10.576Z,42.40
2022-11-14T11:58:03.566Z,40.30
2022-11-14T12:00:33.166Z,44.30
2022-11-14T12:03:10.492Z,38.60
2022-11-14T12:05:54.226Z,40.70
2022-11-14T12:08:28.461Z,37.50
2022-11-14T12:10:58.905Z,39.70
2022-11-14T12:14:04.991Z,38.80
2022-11-14T12:17:02.921Z,34.80
2022-11-14T12:19:31.206Z,39.60
2022-11-14T12:22:11.245Z,41.20
2022-11-14T12:24:42.269Z,38.80
2022-11-14T12:27:34.211Z,38.30
2022-11-14T12:30:25.069Z,36.10
2022-11-14T12:33:30.027Z,35.50
2022-11-14T12:36:02.206Z,36.00
2022-11-14T12:38:43.643Z,37.00
2022-11-14T12:41:13.395Z,37.30
2022-11-14T12:43:43.721Z,38.10
2022-11-14T12:46:14.091Z,35.20
2022-11-14T12:48:44.437Z,38.90
2022-11-14T12:51:28.040Z,35.40
2022-11-14T12:53:58.190Z,39.00
2022-11-14T12:56:53.800Z,41.10
2022-11-14T12:59:53.187Z,41.20
2022-11-14T13:02:49.799Z,39.40
2022-11-14T13:06:16.142Z,40.60
2022-11-14T13:09:09.808Z,38.60
2022-11-14T13:12:02.802Z,43.80
2022-11-14T13:14:50.836Z,36.40
2022-11-14T13:17:42.722Z,39.10
2022-11-14T13:20:44.618Z,37.80
2022-11-14T13:23:33.701Z,37.00
2022-11-14T13:26:11.505Z,37.20
2022-11-14T13:28:50.192Z,39.80
2022-11-14T13:31:19.755Z,40.00
2022-11-14T13:33:50.572Z,40.70
2022-11-14T13:36:31.010Z,39.10
2022-11-14T13:39:21.801Z,41.10
2022-11-14T13:42:26.429Z,42.30
2022-11-14T13:45:01.652Z,35.20
2022-11-14T13:47:51.770Z,38.90
2022-11-14T13:50:29.920Z,37.30
2022-11-14T13:52:59.651Z,40.00
2022-11-14T13:55:33.679Z,38.70
2022-11-14T13:58:22.886Z,39.40
2022-11-14T14:01:16.358Z,39.30
2022-11-14T14:04:09.406Z,36.20
2022-11-14T14:07:14.303Z,41.70
2022-11-14T14:10:09.750Z,35.20
2022-11-14T14:12:39.439Z,37.20
2022-11-14T14:15:16.430Z,37.80
2022-11-14T14:18:49.272Z,42.00
2022-11-14T14:21:33.500Z,40.00
2022-11-14T14:27:02.848Z,47.20
2022-11-14T14:29:48.312Z,43.40
2022-11-14T14:32:19.173Z,46.30
2022-11-14T14:34:47.710Z,40.90
2022-11-14T14:37:24.642Z,45.80
2022-11-14T14:40:01.456Z,56.10
2022-11-14T14:42:49.498Z,49.30
2022-11-14T14:45:21.170Z,45.00
2022-11-14T14:47:58.841Z,43.90
2022-11-14T14:50:35.989Z,42.20
2022-11-14T14:53:05.087Z,51.20
2022-11-14T14:55:35.930Z,46.20
2022-11-14T14:58:28.490Z,46.70
2022-11-14T15:01:07.547Z,68.70
2022-11-14T15:03:49.170Z,59.20
2022-11-14T15:06:20.753Z,55.20
2022-11-14T15:08:49.937Z,47.20
2022-11-14T15:11:18.420Z,43.70
2022-11-14T15:13:49.484Z,46.90
2022-11-14T15:16:18.201Z,47.30
2022-11-14T15:18:48.447Z,45.10
2022-11-14T15:21:27.497Z,44.30
2022-11-14T15:24:12.988Z,46.00
2022-11-14T15:26:45.389Z,44.80
2022-11-14T15:29:27.387Z,47.00
2022-11-14T15:31:58.870Z,50.00
2022-11-14T15:34:31.669Z,48.20
2022-11-14T15:37:14.759Z,46.10
2022-11-14T15:39:44.223Z,41.80
2022-11-14T15:42:16.713Z,51.10
2022-11-14T15:44:47.129Z,48.40
2022-11-14T15:47:39.519Z,49.50
2022-11-14T15:50:13.729Z,44.90
2022-11-14T15:53:22.967Z,50.40
2022-11-14T15:55:51.322Z,52.60
2022-11-14T15:58:28.152Z,50.70
2022-11-14T16:00:58.410Z,51.70
2022-11-14T16:03:27.190Z,50.80
2022-11-14T16:05:55.722Z,53.20
2022-11-14T16:08:23.989Z,54.90
2022-11-14T16:10:52.378Z,51.20
2022-11-14T16:13:20.785Z,48.60
2022-11-14T16:15:49.202Z,50.60
2022-11-14T16:18:17.594Z,55.80
2022-11-14T16:20:46.008Z,55.40
2022-11-14T16:23:14.484Z,51.00
2022-11-14T16:25:42.812Z,53.00
2022-11-14T16:28:11.283Z,53.60
2022-11-14T16:30:39.695Z,52.20
2022-11-14T16:33:08.936Z,51.00
2022-11-14T16:35:37.522Z,54.50
2022-11-14T16:38:06.990Z,59.60
2022-11-14T16:40:35.415Z,54.40
2022-11-14T16:43:04.314Z,61.10
2022-11-14T16:45:35.560Z,54.70
2022-11-14T16:48:04.078Z,57.00
2022-11-14T16:50:32.708Z,56.40
2022-11-14T16:53:01.130Z,59.90
2022-11-14T16:55:29.700Z,62.10
2022-11-14T16:57:58.207Z,64.00
2022-11-14T17:00:28.342Z,58.50
2022-11-14T17:03:03.178Z,59.60
2022-11-14T17:05:31.735Z,62.70
2022-11-14T17:08:00.148Z,64.80
2022-11-14T17:10:28.796Z,60.60
2022-11-14T17:12:57.565Z,68.70
2022-11-14T17:15:26.122Z,74.30
2022-11-14T17:17:54.750Z,62.70
2022-11-14T17:20:27.307Z,62.90
2022-11-14T17:22:56.610Z,64.90
2022-11-14T17:25:25.957Z,72.20
2022-11-14T17:27:55.257Z,65.20
2022-11-14T17:30:24.088Z,64.30
2022-11-14T17:32:56.360Z,72.70
2022-11-14T17:35:25.415Z,65.10
2022-11-14T17:37:58.980Z,61.80
2022-11-14T17:40:29.486Z,57.00
2022-11-14T17:42:58.254Z,63.30
2022-11-14T17:45:26.977Z,63.30
2022-11-14T17:47:55.965Z,69.10
2022-11-14T17:50:24.480Z,62.60
2022-11-14T17:52:53.856Z,65.60
2022-11-14T17:55:22.657Z,67.70
2022-11-14T17:57:51.266Z,63.50
2022-11-14T18:00:20.564Z,68.10
2022-11-14T18:02:50.647Z,64.20
2022-11-14T18:05:20.207Z,66.30
2022-11-14T18:07:50.069Z,63.20
2022-11-14T18:10:19.339Z,61.70
2022-11-14T18:12:48.413Z,67.00
2022-11-14T18:15:17.678Z,77.70
2022-11-14T18:17:46.342Z,65.40
2022-11-14T18:20:15.682Z,72.50
2022-11-14T18:22:44.736Z,74.40
2022-11-14T18:25:14.250Z,71.00
2022-11-14T18:27:44.050Z,78.00
2022-11-14T18:30:39.602Z,76.10
2022-11-14T18:33:03.042Z,87.00
2022-11-14T18:35:32.370Z,76.60
2022-11-14T18:38:02.275Z,68.70
2022-11-14T18:40:32.044Z,81.00
2022-11-14T18:43:01.332Z,79.10
2022-11-14T18:45:30.619Z,95.80
2022-11-14T18:48:00.470Z,76.90
2022-11-14T18:50:31.532Z,76.10
2022-11-14T18:53:01.110Z,59.20
2022-11-14T18:55:30.609Z,89.50
2022-11-14T18:58:00.048Z,80.30
2022-11-14T19:00:33.808Z,81.30
2022-11-14T19:03:06.297Z,84.50
2022-11-14T19:05:37.520Z,80.40
2022-11-14T19:08:08.232Z,69.00
2022-11-14T19:10:37.490Z,77.70
2022-11-14T19:13:06.794Z,80.50
2022-11-14T19:15:35.917Z,83.90
2022-11-14T19:18:05.300Z,81.80
2022-11-14T19:20:34.884Z,79.40
2022-11-14T19:23:04.311Z,78.40
2022-11-14T19:25:38.082Z,78.60
2022-11-14T19:28:07.358Z,82.70
2022-11-14T19:30:37.072Z,84.30
2022-11-14T19:33:07.393Z,81.00
2022-11-14T19:35:40.195Z,84.10
2022-11-14T19:38:10.085Z,80.30
2022-11-14T19:40:40.328Z,77.50
2022-11-14T19:43:12.273Z,78.60
2022-11-14T19:45:42.425Z,76.60
2022-11-14T19:48:14.646Z,76.80
2022-11-14T19:50:44.396Z,80.30
2022-11-14T19:53:14.389Z,81.40
2022-11-14T19:55:44.511Z,80.70
2022-11-14T19:58:13.544Z,82.30
2022-11-14T20:00:42.785Z,76.90
2022-11-14T20:03:15.082Z,76.30
2022-11-14T20:05:44.399Z,74.00
2022-11-14T20:08:13.483Z,73.90
2022-11-14T20:10:48.658Z,74.90
2022-11-14T20:13:17.091Z,78.40
2022-11-14T20:15:45.703Z,74.90
2022-11-14T20:18:14.540Z,81.30
2022-11-14T20:20:43.932Z,76.90
2022-11-14T20:23:16.963Z,65.20
2022-11-14T20:25:52.515Z,75.90
2022-11-14T20:28:22.578Z,74.30
2022-11-14T20:30:52.233Z,72.30
2022-11-14T20:33:21.981Z,69.50
2022-11-14T20:35:51.913Z,79.20
2022-11-14T20:38:21.649Z,75.80
2022-11-14T20:40:59.566Z,72.50
2022-11-14T20:43:29.677Z,68.30
2022-11-14T20:46:13.716Z,74.10
2022-11-14T20:48:43.464Z,75.60
2022-11-14T20:51:14.595Z,80.90
2022-11-14T20:53:44.326Z,75.30
2022-11-14T20:56:16.956Z,78.80
2022-11-14T20:58:48.932Z,78.90
2022-11-14T21:01:18.321Z,76.10
2022-11-14T21:03:48.474Z,72.60
2022-11-14T21:06:17.617Z,73.90
2022-11-14T21:08:46.912Z,77.20
2022-11-14T21:11:18.429Z,81.50
2022-11-14T21:13:56.828Z,79.40
2022-11-14T21:16:37.296Z,81.70
2022-11-14T21:19:07.739Z,73.70
2022-11-14T21:21:39.098Z,72.90
2022-11-14T21:24:07.879Z,66.90
2022-11-14T21:26:39.781Z,78.90
2022-11-14T21:29:13.224Z,72.70
2022-11-14T21:31:45.005Z,78.90
2022-11-14T21:34:16.963Z,79.90
2022-11-14T21:36:47.099Z,80.90
2022-11-14T21:39:17.689Z,66.50
2022-11-14T21:41:48.656Z,76.30
2022-11-14T21:44:18.166Z,83.40
2022-11-14T21:46:48.943Z,83.20
2022-11-14T21:49:17.480Z,78.70
2022-11-14T21:51:45.843Z,70.70
2022-11-14T21:54:14.305Z,75.20
2022-11-14T21:56:42.570Z,82.30
2022-11-14T21:59:15.604Z,65.00
2022-11-14T22:02:05.690Z,73.50
2022-11-14T22:04:35.333Z,81.30
2022-11-14T22:07:08.590Z,72.80
2022-11-14T22:09:41.116Z,78.80
2022-11-14T22:12:12.565Z,75.60
2022-11-14T22:14:40.926Z,74.90
2022-11-14T22:17:09.267Z,71.40
2022-11-14T22:19:37.442Z,82.60
2022-11-14T22:22:05.820Z,72.50
2022-11-14T22:24:34.109Z,87.40
2022-11-14T22:27:02.427Z,77.00
2022-11-14T22:29:30.735Z,75.80
2022-11-14T22:31:59.064Z,73.90
2022-11-14T22:34:27.378Z,68.10
2022-11-14T22:36:55.688Z,81.00
2022-11-14T22:39:30.063Z,76.10
2022-11-14T22:41:58.435Z,70.20
2022-11-14T22:44:26.766Z,71.80
2022-11-14T22:46:55.068Z,77.00
2022-11-14T22:49:23.395Z,75.80
2022-11-14T22:51:51.617Z,76.00
2022-11-14T22:54:20.205Z,74.30
2022-11-14T22:56:48.582Z,74.00
2022-11-14T22:59:16.994Z,63.30
2022-11-14T23:01:44.021Z,71.50
2022-11-14T23:04:11.133Z,75.20
2022-11-14T23:06:39.611Z,65.10
2022-11-14T23:09:07.974Z,61.80
2022-11-14T23:11:36.271Z,67.90
2022-11-14T23:14:04.550Z,71.90
2022-11-14T23:16:34.283Z,65.30
2022-11-14T23:19:04.437Z,66.40
2022-11-14T23:21:36.538Z,64.10
2022-11-14T23:24:08.625Z,69.60
2022-11-14T23:26:37.015Z,65.00
2022-11-14T23:29:05.319Z,69.00
2022-11-14T23:31:33.688Z,67.00
2022-11-14T23:34:01.936Z,65.70
2022-11-14T23:36:30.506Z,71.70
2022-11-14T23:42:58.604Z,73.50
2022-11-14T23:45:27.049Z,61.40
2022-11-14T23:47:55.491Z,67.70
2022-11-14T23:50:24.025Z,62.10
2022-11-14T23:52:52.385Z,65.90
2022-11-14T23:55:20.859Z,62.40
2022-11-14T23:57:49.235Z,59.20
